Data for 07/08/2014

Time Sea-Level Adjusted Pressure Absolute Pressure Temperature Relative Humidity Dew Point   
(mb) (inHg) (mb) (inHg) (C) (F) (%) (C) (F)
00:05 1023 30.21 852 25.16 17.3 63.1 44 5 41
00:10 1023 30.21 852 25.16 17.1 62.8 44 4.9 40.9
00:15 1023 30.21 853 25.19 17 62.6 45 5 41
00:20 1023 30.21 853 25.19 16.9 62.4 45 5 41
00:25 1023 30.21 853 25.19 16.7 62.1 46 5.1 41.1
00:30 1023 30.21 853 25.19 16.7 62 46 5 41.1
00:35 1023 30.21 853 25.19 16.6 61.9 46 5 40.9
00:40 1023 30.21 853 25.19 16.6 61.8 46 5.1 41.1
00:45 1024 30.24 853 25.19 16.5 61.6 46 5.1 41.1
00:50 1024 30.24 853 25.19 16.4 61.4 47 5 41.1
00:55 1024 30.24 853 25.19 16.3 61.3 47 5 41
01:00 1024 30.24 853 25.19 16.3 61.4 46 4.8 40.7
01:05 1024 30.24 853 25.19 16.4 61.5 46 4.8 40.7
01:10 1024 30.24 853 25.19 16.4 61.5 46 5 40.9
01:15 1024 30.24 853 25.19 16.3 61.3 46 4.8 40.7
01:20 1024 30.24 853 25.19 16.3 61.4 46 4.7 40.4
01:25 1024 30.24 853 25.19 16.4 61.5 45 4.7 40.4
01:30 1024 30.24 853 25.19 16.4 61.6 45 4.7 40.5
01:35 1024 30.24 853 25.19 16.4 61.5 45 4.5 40.1
01:40 1024 30.24 853 25.19 16.4 61.5 45 4.6 40.2
01:45 1024 30.24 853 25.19 16.3 61.3 45 4.6 40.2
01:50 1024 30.24 853 25.19 16.3 61.3 46 4.6 40.3
01:55 1023 30.21 853 25.19 16.2 61.1 45 4.5 40
02:00 1023 30.21 853 25.19 16.2 61.1 45 4.5 40.1
02:05 1023 30.21 853 25.19 16.2 61.1 45 4.5 40
02:10 1023 30.21 853 25.19 16.1 61 45 4.4 39.9
02:15 1023 30.21 853 25.19 16.1 60.9 45 4.4 39.9
02:20 1023 30.21 853 25.19 16.1 60.9 45 4.4 39.8
02:25 1023 30.21 853 25.19 16 60.9 45 4.3 39.7
02:30 1023 30.21 852 25.16 16 60.8 46 4.4 39.8
02:35 1023 30.21 852 25.16 15.9 60.6 46 4.3 39.8
02:40 1023 30.21 852 25.16 15.8 60.5 46 4.5 40
02:45 1023 30.21 852 25.16 15.8 60.4 46 4.4 39.9
02:50 1023 30.21 852 25.16 15.7 60.3 46 4.4 39.9
02:55 1023 30.21 852 25.16 15.7 60.3 46 4.3 39.8
03:00 1023 30.21 852 25.16 15.8 60.5 46 4.2 39.6
03:05 1023 30.21 852 25.16 15.9 60.6 46 4.3 39.8
03:10 1023 30.21 852 25.16 15.8 60.5 46 4.3 39.7
03:15 1023 30.21 852 25.16 15.8 60.5 46 4.4 39.9
03:20 1023 30.21 852 25.16 15.7 60.3 47 4.5 40.1
03:25 1023 30.21 852 25.16 15.6 60.1 47 4.4 40
03:30 1023 30.21 852 25.16 15.5 59.9 48 4.5 40.1
03:35 1023 30.21 852 25.16 15.3 59.5 49 4.6 40.3
03:40 1023 30.21 852 25.16 15.2 59.3 49 4.5 40.1
03:45 1023 30.21 852 25.16 15.3 59.5 48 4.4 40
03:50 1023 30.21 852 25.16 15.3 59.6 48 4.5 40
03:55 1023 30.21 852 25.16 15.3 59.5 49 4.7 40.4
04:00 1023 30.21 852 25.16 15.2 59.4 48 4.5 40.1
04:05 1023 30.21 852 25.16 15.2 59.3 49 4.7 40.4
04:10 1023 30.21 853 25.19 15.1 59.2 49 4.6 40.3
04:15 1023 30.21 853 25.19 15 59.1 50 4.7 40.4
04:20 1023 30.21 853 25.19 14.9 58.7 50 4.7 40.5
04:25 1023 30.21 853 25.19 14.7 58.5 50 4.6 40.4
04:30 1023 30.21 853 25.19 14.6 58.4 51 4.7 40.5
04:35 1023 30.21 853 25.19 14.6 58.3 51 4.6 40.2
04:40 1023 30.21 853 25.19 14.7 58.5 51 4.7 40.4
04:45 1023 30.21 853 25.19 14.7 58.5 51 4.7 40.4
04:50 1023 30.21 853 25.19 14.7 58.4 51 4.7 40.5
04:55 1023 30.21 853 25.19 14.6 58.3 51 4.7 40.5
05:00 1023 30.21 853 25.19 14.6 58.2 52 4.8 40.7
05:05 1023 30.21 853 25.19 14.6 58.2 51 4.7 40.5
05:10 1023 30.21 853 25.19 14.6 58.3 51 4.7 40.5
05:15 1023 30.21 853 25.19 14.6 58.3 52 4.9 40.8
05:20 1023 30.21 853 25.19 14.5 58.2 52 4.9 40.8
05:25 1023 30.21 853 25.19 14.5 58.1 52 4.9 40.8
05:30 1023 30.21 853 25.19 14.5 58.1 52 4.9 40.8
05:35 1023 30.21 853 25.19 14.6 58.2 52 4.9 40.9
05:40 1023 30.21 853 25.19 14.6 58.2 53 5.1 41.2
05:45 1023 30.21 853 25.19 14.6 58.3 52 4.9 40.8
05:50 1023 30.21 853 25.19 14.7 58.5 52 5 41
05:55 1023 30.21 853 25.19 14.8 58.7 51 5 40.9
06:00 1023 30.21 853 25.19 15 58.9 51 5.1 41.2
06:05 1023 30.21 853 25.19 15.1 59.2 50 4.9 40.8
06:10 1023 30.21 853 25.19 15.3 59.6 50 5 41
06:15 1023 30.21 853 25.19 15.6 60 49 5 41
06:20 1023 30.21 853 25.19 15.7 60.2 49 5.1 41.2
06:25 1023 30.21 853 25.19 15.8 60.4 49 5.1 41.3
06:30 1023 30.21 853 25.19 15.9 60.5 49 5.2 41.3
06:35 1023 30.21 853 25.19 16 60.9 48 5.2 41.4
06:40 1023 30.21 853 25.19 16.2 61.1 48 5.3 41.6
06:45 1023 30.21 853 25.19 16.2 61.2 47 5.2 41.3
06:50 1023 30.21 853 25.19 16.4 61.4 48 5.3 41.5
06:55 1023 30.21 853 25.19 16.6 61.9 46 4.9 40.9
07:00 1023 30.21 853 25.19 16.6 61.9 46 5.1 41.2
07:05 1023 30.21 853 25.19 16.7 62.1 46 5.3 41.5
07:10 1023 30.21 853 25.19 17 62.6 45 5.2 41.4
07:15 1023 30.21 853 25.19 17.1 62.7 46 5.5 42
07:20 1023 30.21 853 25.19 17.1 62.7 46 5.6 42.1
07:25 1023 30.21 853 25.19 17.1 62.8 46 5.4 41.8
07:30 1023 30.21 853 25.19 17.4 63.4 45 5.5 41.9
07:35 1023 30.21 853 25.19 17.4 63.4 44 5.1 41.2
07:40 1023 30.21 853 25.19 17.6 63.6 44 5.3 41.6
07:45 1023 30.21 853 25.19 17.6 63.7 44 5.2 41.4
07:50 1023 30.21 853 25.19 17.7 63.8 44 5.3 41.6
07:55 1023 30.21 853 25.19 17.8 64.1 43 5.2 41.4
08:00 1023 30.21 853 25.19 18 64.3 43 5.2 41.4
08:05 1023 30.21 853 25.19 18 64.3 43 5.2 41.4
08:10 1023 30.21 852 25.16 18.1 64.5 43 5.4 41.6
08:15 1023 30.21 853 25.19 18.3 64.9 42 5.3 41.5
08:20 1023 30.21 852 25.16 18.5 65.2 43 5.7 42.3
08:25 1023 30.21 852 25.16 19 66.3 41 5.5 42
08:30 1023 30.21 852 25.16 19.2 66.5 40 5.4 41.7
08:35 1023 30.21 852 25.16 19.2 66.5 41 5.8 42.5
08:40 1023 30.21 852 25.16 19.3 66.7 41 5.9 42.7
08:45 1023 30.21 852 25.16 19.5 67.2 43 6.8 44.2
08:50 1023 30.21 852 25.16 19.5 67 43 6.6 43.8
08:55 1023 30.21 852 25.16 19.7 67.5 40 6 42.7
09:00 1023 30.21 852 25.16 20.5 68.8 40 6.7 44.1
09:05 1023 30.21 852 25.16 20.1 68.2 41 6.7 44.1
09:10 1023 30.21 852 25.16 19.7 67.4 44 7.4 45.2
09:15 1023 30.21 852 25.16 19.3 66.8 44 6.9 44.5
09:20 1023 30.21 852 25.16 19.9 67.9 43 7.3 45.1
09:25 1023 30.21 852 25.16 20.1 68.1 42 7 44.5
09:30 1023 30.21 852 25.16 20.5 68.9 42 7.2 45
09:35 1023 30.21 852 25.16 20.9 69.5 41 7.5 45.4
09:40 1023 30.21 852 25.16 21 69.8 41 7.3 45.2
09:45 1023 30.21 852 25.16 20.9 69.5 42 7.6 45.6
09:50 1023 30.21 852 25.16 21.3 70.4 39 7 44.6
09:55 1023 30.21 852 25.16 21 69.8 40 7.2 44.9
10:00 1023 30.21 852 25.16 21.2 70.1 41 7.4 45.4
10:05 1023 30.21 852 25.16 20.9 69.6 41 7.5 45.5
10:10 1023 30.21 852 25.16 21.3 70.4 40 7.3 45.2
10:15 1023 30.21 852 25.16 21.3 70.4 40 7.2 45
10:20 1022 30.18 852 25.16 21.7 71 39 7.4 45.4
10:25 1022 30.18 852 25.16 22.3 72.2 38 7.6 45.7
10:30 1022 30.18 852 25.16 22.3 72.2 39 8 46.4
10:35 1022 30.18 852 25.16 22.6 72.6 37 7.4 45.4
10:40 1022 30.18 852 25.16 22.5 72.5 38 7.8 46
10:45 1022 30.18 852 25.16 22.1 71.8 38 7.4 45.3
10:50 1022 30.18 852 25.16 23.1 73.5 35 7.2 45
10:55 1022 30.18 851 25.13 22.7 72.8 37 7.3 45.2
11:00 1022 30.18 851 25.13 24.2 75.6 33 7.2 45
11:05 1022 30.18 851 25.13 24.4 76 32 7 44.6
11:10 1022 30.18 851 25.13 24.6 76.3 34 7.8 46.1
11:15 1022 30.18 851 25.13 23.2 73.7 37 8.1 46.6
11:20 1022 30.18 851 25.13 23 73.4 37 7.8 46
11:25 1022 30.18 851 25.13 23.6 74.6 37 8.2 46.8
11:30 1022 30.18 851 25.13 23.5 74.3 36 7.6 45.7
11:35 1022 30.18 851 25.13 24.2 75.6 34 7.5 45.4
11:40 1022 30.18 851 25.13 24.6 76.2 35 8.2 46.8
11:45 1022 30.18 851 25.13 24.1 75.3 34 7.5 45.5
11:50 1022 30.18 851 25.13 24.3 75.7 33 7.4 45.3
11:55 1022 30.18 851 25.13 24.8 76.6 34 7.9 46.2
12:00 1022 30.18 851 25.13 25.1 77.1 35 8.7 47.6
12:05 1022 30.18 851 25.13 25.5 78 31 7.6 45.7
12:10 1022 30.18 851 25.13 25.6 78 32 8.1 46.6
12:15 1022 30.18 851 25.13 25.3 77.5 33 8.3 46.9
12:20 1022 30.18 851 25.13 25.9 78.6 31 7.8 46.1
12:25 1022 30.18 851 25.13 25.7 78.2 32 8 46.4
12:30 1021 30.15 851 25.13 26.3 79.3 30 7.7 45.9
12:35 1021 30.15 851 25.13 26 78.7 32 8.2 46.8
12:40 1021 30.15 851 25.13 26.3 79.4 30 7.7 45.9
12:45 1021 30.15 851 25.13 26.2 79.2 29 7.2 44.9
12:50 1021 30.15 850 25.1 26.7 80.1 28 6.9 44.3
12:55 1021 30.15 850 25.1 26.5 79.8 32 8.7 47.6
13:00 1021 30.15 850 25.1 25.8 78.4 32 7.9 46.3
13:05 1021 30.15 850 25.1 25.9 78.5 32 8 46.5
13:10 1021 30.15 850 25.1 26.8 80.3 27 6.7 44.1
13:15 1021 30.15 850 25.1 27.4 81.3 31 8.8 47.9
13:20 1021 30.15 850 25.1 27.2 81 28 7.3 45.1
13:25 1021 30.15 850 25.1 27.2 81 30 8.6 47.5
13:30 1021 30.15 850 25.1 26.6 79.9 28 7.1 44.8
13:35 1021 30.15 850 25.1 27.5 81.5 27 7.1 44.8
13:40 1021 30.15 850 25.1 27.5 81.5 28 7.9 46.2
13:45 1021 30.15 850 25.1 27.6 81.6 27 7.1 44.8
13:50 1021 30.15 850 25.1 27 80.5 28 7.1 44.8
13:55 1021 30.15 850 25.1 27 80.6 29 7.6 45.6
14:00 1021 30.15 850 25.1 27.3 81.1 28 7.5 45.5
14:05 1021 30.15 850 25.1 27.6 81.7 29 8.1 46.5
14:10 1021 30.15 850 25.1 28.3 82.9 26 7.5 45.5
14:15 1021 30.15 850 25.1 27.4 81.3 28 7.6 45.6
14:20 1020 30.12 850 25.1 28 82.4 28 8.2 46.7
14:25 1021 30.15 850 25.1 28.8 83.8 25 7 44.5
14:30 1021 30.15 850 25.1 28.8 83.9 27 8.3 47
14:35 1020 30.12 850 25.1 28.2 82.7 27 7.7 45.8
14:40 1020 30.12 850 25.1 28 82.3 31 9.4 48.9
14:45 1020 30.12 850 25.1 28.1 82.6 27 7.6 45.6
14:50 1020 30.12 850 25.1 28.8 83.9 28 8.6 47.4
14:55 1020 30.12 850 25.1 28.7 83.6 29 9.1 48.4
15:00 1020 30.12 850 25.1 28.6 83.4 30 9.4 48.9
15:05 1020 30.12 849 25.07 28.1 82.6 30 9.5 49
15:10 1020 30.12 849 25.07 27.7 81.9 29 8.5 47.3
15:15 1020 30.12 849 25.07 28.6 83.5 27 8.3 46.9
15:20 1020 30.12 849 25.07 28.8 83.8 29 9.1 48.5
15:25 1020 30.12 849 25.07 28.4 83.1 27 7.7 45.9
15:30 1020 30.12 849 25.07 29 84.1 27 8.4 47.1
15:35 1020 30.12 849 25.07 28.4 83.2 28 8.3 47
15:40 1020 30.12 849 25.07 28.3 82.9 25 6.6 43.8
15:45 1020 30.12 849 25.07 28.8 83.9 25 7.4 45.2
15:50 1020 30.12 849 25.07 28.4 83.1 24 6.4 43.5
15:55 1020 30.12 849 25.07 29.5 85.1 24 6.9 44.4
16:00 1020 30.12 849 25.07 29.4 84.9 25 7.7 45.8
16:05 1020 30.12 849 25.07 29.6 85.2 24 7.2 45
16:10 1020 30.12 849 25.07 29.9 85.8 25 7.8 46.1
16:15 1020 30.12 849 25.07 29.6 85.3 24 7.2 44.9
16:20 1020 30.12 849 25.07 29.4 84.9 23 6.7 44
16:25 1020 30.12 849 25.07 29.7 85.5 22 6 42.8
16:30 1020 30.12 849 25.07 29 84.1 23 6.1 43
16:35 1020 30.12 849 25.07 29 84.2 22 5.6 42.1
16:40 1020 30.12 849 25.07 29.1 84.4 25 7.2 44.9
16:45 1020 30.12 849 25.07 28.7 83.7 25 7.2 45
16:50 1019 30.09 849 25.07 29.2 84.6 24 7 44.6
16:55 1019 30.09 849 25.07 29.2 84.6 26 8 46.3
17:00 1019 30.09 849 25.07 28.7 83.6 26 7.5 45.6
17:05 1019 30.09 849 25.07 28.4 83.2 26 7.5 45.4
17:10 1019 30.09 849 25.07 28.4 83.1 25 6.8 44.2
17:15 1019 30.09 848 25.04 28.3 83 25 6.8 44.3
17:20 1019 30.09 848 25.04 28.2 82.7 25 6.8 44.2
17:25 1019 30.09 848 25.04 28.4 83 25 6.8 44.2
17:30 1019 30.09 848 25.04 28.2 82.8 25 6.8 44.2
17:35 1019 30.09 848 25.04 28.1 82.5 25 6.7 44
17:40 1019 30.09 848 25.04 28.2 82.8 26 7 44.5
17:45 1019 30.09 848 25.04 28.3 83 26 7.3 45.1
17:50 1019 30.09 848 25.04 28.2 82.7 25 6.8 44.3
17:55 1019 30.09 848 25.04 27.7 81.9 26 6.7 44.1
18:00 1019 30.09 848 25.04 27.6 81.7 26 6.7 44
18:05 1019 30.09 848 25.04 27.6 81.6 27 7 44.7
18:10 1019 30.09 848 25.04 27.5 81.5 27 7 44.5
18:15 1019 30.09 848 25.04 27.3 81.2 27 6.8 44.2
18:20 1019 30.09 848 25.04 27.3 81.1 27 6.7 44
18:25 1019 30.09 848 25.04 27.2 81 28 7.2 45
18:30 1019 30.09 848 25.04 27 80.5 28 7.1 44.8
18:35 1019 30.09 848 25.04 26.8 80.2 28 7.1 44.9
18:40 1019 30.09 848 25.04 26.6 79.9 28 7.1 44.8
18:45 1019 30.09 848 25.04 26.4 79.6 28 6.9 44.5
18:50 1019 30.09 848 25.04 26.2 79.2 29 7 44.7
18:55 1019 30.09 848 25.04 26.1 78.9 29 7 44.5
19:00 1019 30.09 848 25.04 25.9 78.7 29 6.9 44.4
19:05 1019 30.09 848 25.04 25.8 78.5 30 7 44.5
19:10 1019 30.09 848 25.04 25.7 78.3 29 6.7 44
19:15 1019 30.09 848 25.04 25.6 78.1 29 6.3 43.3
19:20 1019 30.09 848 25.04 25.5 77.9 29 6.5 43.6
19:25 1019 30.09 848 25.04 25.4 77.7 29 6.5 43.7
19:30 1019 30.09 848 25.04 25.2 77.3 30 6.6 43.9
19:35 1019 30.09 848 25.04 25 77.1 30 6.7 44
19:40 1019 30.09 848 25.04 24.9 76.7 30 6.4 43.6
19:45 1019 30.09 848 25.04 24.7 76.5 31 6.5 43.8
19:50 1019 30.09 848 25.04 24.5 76.1 31 6.5 43.6
19:55 1019 30.09 848 25.04 24.5 76 31 6.4 43.5
20:00 1019 30.09 848 25.04 24.4 75.9 31 6.4 43.6
20:05 1019 30.09 848 25.04 24.2 75.6 31 6.5 43.6
20:10 1019 30.09 848 25.04 24 75.3 32 6.6 43.8
20:15 1019 30.09 848 25.04 23.8 74.8 32 6.5 43.7
20:20 1019 30.09 848 25.04 23.7 74.6 32 6.4 43.5
20:25 1019 30.09 848 25.04 23.6 74.5 32 6.2 43.1
20:30 1019 30.09 848 25.04 23.6 74.5 32 6.3 43.4
20:35 1019 30.09 848 25.04 23.5 74.3 32 6.3 43.3
20:40 1019 30.09 848 25.04 23.4 74.2 32 6.1 43
20:45 1019 30.09 848 25.04 23.4 74.1 32 6.1 43
20:50 1019 30.09 848 25.04 23.3 73.9 32 6 42.9
20:55 1019 30.09 848 25.04 23.2 73.8 33 6.2 43.2
21:00 1019 30.09 848 25.04 23 73.4 33 6.2 43.2
21:05 1019 30.09 848 25.04 22.9 73.2 33 6.2 43.1
21:10 1019 30.09 848 25.04 22.9 73.2 34 6.3 43.4
21:15 1019 30.09 848 25.04 22.8 73 34 6.3 43.3
21:20 1019 30.09 848 25.04 22.7 72.9 34 6.3 43.3
21:25 1019 30.09 848 25.04 22.7 72.9 34 6.3 43.4
21:30 1019 30.09 849 25.07 22.7 72.8 35 6.5 43.8
21:35 1019 30.09 849 25.07 22.6 72.6 35 6.5 43.6
21:40 1019 30.09 849 25.07 22.6 72.6 35 6.6 43.9
21:45 1019 30.09 849 25.07 22.4 72.3 36 6.8 44.3
21:50 1019 30.09 849 25.07 22.2 71.9 36 6.7 44.1
21:55 1019 30.09 849 25.07 22.1 71.8 36 6.6 44
22:00 1019 30.09 849 25.07 22.1 71.9 36 6.7 44
22:05 1019 30.09 849 25.07 22 71.6 37 6.7 44
22:10 1019 30.09 849 25.07 21.9 71.5 37 6.7 44.1
22:15 1019 30.09 849 25.07 21.9 71.3 37 6.7 44.1
22:20 1019 30.09 849 25.07 21.8 71.3 37 6.6 43.8
22:25 1019 30.09 849 25.07 21.8 71.2 37 6.6 43.9
22:30 1019 30.09 849 25.07 21.6 70.9 37 6.6 43.9
22:35 1019 30.09 848 25.04 21.5 70.8 37 6.5 43.7
22:40 1019 30.09 848 25.04 21.5 70.7 37 6.6 43.8
22:45 1019 30.09 848 25.04 21.4 70.5 38 6.7 44
22:50 1019 30.09 848 25.04 21.3 70.3 38 6.5 43.6
22:55 1019 30.09 848 25.04 21.3 70.3 38 6.5 43.6
23:00 1019 30.09 848 25.04 21.2 70.2 38 6.5 43.7
23:05 1019 30.09 848 25.04 21.1 70 39 6.6 43.9
23:10 1019 30.09 848 25.04 21 69.8 38 6.5 43.6
23:15 1019 30.09 848 25.04 20.9 69.6 39 6.7 44
23:20 1019 30.09 848 25.04 20.8 69.4 39 6.5 43.7
23:25 1019 30.09 848 25.04 20.7 69.3 39 6.5 43.7
23:30 1019 30.09 849 25.07 20.7 69.2 39 6.5 43.6
23:35 1019 30.09 849 25.07 20.6 69.1 39 6.5 43.6
23:40 1019 30.09 848 25.04 20.6 69.1 39 6.3 43.4
23:45 1019 30.09 848 25.04 20.5 68.9 40 6.5 43.7
23:50 1019 30.09 848 25.04 20.4 68.8 40 6.4 43.5
23:55 1019 30.09 848 25.04 20.4 68.7 40 6.5 43.6
24:00 1019 30.09 848 25.04 20.3 68.5 40 6.4 43.6